• Join FlightAware (Why Join?)
  • Login
  • US Flag 
07:01PM EDT


 

Airport Tracker/Info


-or-


 

Live Flight TrackerFlight Track Log ✈ JIA2328 ✈ 12-May-2013 ✈ KPNS - KDCA

Flight Track Log - Related Links

Times and Time Zones

All times are in EDT time to prevent confusion due to time zone crossing. See the JIA2328 flight status page for this flight to view local times or setup timezone preferences in your user account.

Time Position Orientation Groundspeed Altitude Reporting Facility
EDT Latitude Longitude Course Direction KTS MPH feet Rate Location/Type
06:59AM 30.4925 -87.1953 54° Northeast 134 154 1,200  Level Jacksonville Center
07:00AM 30.5428 -87.1881 North 167 192 3,000 1,680 Climbing Jacksonville Center
07:01AM 30.6022 -87.1569 24° Northeast 196 226 4,900 2,280 Climbing Jacksonville Center
07:02AM 30.6508 -86.9155 50° Northeast  Level FlightAware Approximate
07:02AM 30.6744 -87.1192 24° Northeast 244 281 7,600  Level Jacksonville Center
07:03AM 30.7141 -86.8270 50° Northeast  Level FlightAware Approximate
07:03AM 30.7467 -87.0789 26° Northeast 267 307 9,900  Level Jacksonville Center
07:04AM 30.7738 -86.7354 54° Northeast  Level FlightAware Approximate
07:04AM 30.8117 -87.0067 44° Northeast 299 344 12,100  Level Jacksonville Center
07:05AM 30.8811 -86.9297 44° Northeast 315 362 14,000 1,800 Climbing Jacksonville Center
07:06AM 30.9525 -86.8506 44° Northeast 336 387 15,700 1,680 Climbing Jacksonville Center
07:07AM 31.0258 -86.7664 45° Northeast 354 407 17,400 1,860 Climbing Jacksonville Center
07:08AM 31.1036 -86.6797 44° Northeast 354 407 19,500 1,860 Climbing Jacksonville Center
07:09AM 31.1772 -86.5906 46° Northeast 354 407 21,200 1,440 Climbing Jacksonville Center
07:10AM 31.2506 -86.5083 44° Northeast 354 407 22,400 1,020 Climbing Jacksonville Center
07:12AM 31.4211 -86.3142 44° Northeast 387 445 24,400 900 Climbing Atlanta Center
07:13AM 31.5061 -86.2189 44° Northeast 393 452 25,300 900 Climbing Atlanta Center
07:14AM 31.5872 -86.1233 45° Northeast 405 466 26,200 900 Climbing Atlanta Center
07:15AM 31.6722 -86.0253 44° Northeast 411 473 27,100 900 Climbing Atlanta Center
07:16AM 31.7636 -85.9269 42° Northeast 416 479 28,000 900 Climbing Atlanta Center
07:17AM 31.8442 -85.8283 46° Northeast 421 484 28,900 480 Climbing Atlanta Center
07:18AM 31.9333 -85.7225 45° Northeast 427 491 29,000  Climbing Atlanta Center
07:19AM 32.0203 -85.6189 45° Northeast 433 498 29,000  Level Atlanta Center
07:20AM 32.1136 -85.5125 44° Northeast 444 511 29,000  Level Atlanta Center
07:21AM 32.2003 -85.4133 44° Northeast 439 505 29,000  Level Atlanta Center
07:22AM 32.2847 -85.3114 46° Northeast 434 499 29,000  Level Atlanta Center
07:23AM 32.3672 -85.2144 45° Northeast 428 493 29,000  Level Atlanta Center
07:24AM 32.4536 -85.1119 45° Northeast 428 493 29,000  Level Atlanta Center
07:25AM 32.5358 -85.0119 46° Northeast 428 493 29,000  Level Atlanta Center
07:26AM 32.6203 -84.9144 44° Northeast 428 493 29,000  Level Atlanta Center
07:27AM 32.6981 -84.8286 43° Northeast 419 482 29,000  Level Atlanta Center
07:28AM 32.7906 -84.7158 46° Northeast 414 476 29,000  Level Atlanta Center
07:29AM 32.8661 -84.6275 44° Northeast 421 484 29,000  Level Atlanta Center
07:30AM 32.9522 -84.5264 45° Northeast 421 484 29,000  Level Atlanta Center
07:31AM 33.0358 -84.4228 46° Northeast 426 490 29,000  Level Atlanta Center
07:32AM 33.1175 -84.3242 45° Northeast 426 490 29,000  Level Atlanta Center
07:33AM 33.2033 -84.2200 45° Northeast 426 490 29,000  Level Atlanta Center
07:34AM 33.2892 -84.1133 46° Northeast 432 497 29,000  Level Atlanta Center
07:35AM 33.3747 -84.0139 44° Northeast 427 491 29,000  Level Atlanta Center
07:36AM 33.4603 -83.9094 46° Northeast 427 491 29,000  Level Atlanta Center
07:37AM 33.5436 -83.8069 46° Northeast 427 491 29,000  Level Atlanta Center
07:38AM 33.6247 -83.6969 48° Northeast 433 498 29,000  Level Atlanta Center
07:39AM 33.7036 -83.5844 50° Northeast 433 498 29,000  Level Atlanta Center
07:40AM 33.7867 -83.4614 51° Northeast 433 498 29,000  Level Atlanta Center
07:41AM 33.8633 -83.3458 51° Northeast 433 498 29,000  Level Atlanta Center
07:42AM 33.9419 -83.2350 49° Northeast 433 498 29,000  Level Atlanta Center
07:43AM 34.0161 -83.1242 51° Northeast 428 493 29,000  Level Atlanta Center
07:44AM 34.0947 -83.0078 51° Northeast 428 493 29,000  Level Atlanta Center
07:45AM 34.1689 -82.8989 51° Northeast 428 493 29,000  Level Atlanta Center
07:46AM 34.2428 -82.7847 52° Northeast 428 493 29,000  Level Atlanta Center
07:47AM 34.3189 -82.6731 50° Northeast 428 493 29,000  Level Atlanta Center
07:48AM 34.3867 -82.5714 51° Northeast 428 493 29,000  Level Atlanta Center
07:49AM 34.4583 -82.4592 52° Northeast 423 487 29,000  Level Atlanta Center
07:50AM 34.5339 -82.3494 50° Northeast 428 493 29,000  Level Atlanta Center
07:51AM 34.6094 -82.2317 52° Northeast 428 493 29,000  Level Atlanta Center
07:52AM 34.6831 -82.1217 51° Northeast 428 493 29,000  Level Atlanta Center
07:53AM 34.7561 -82.0061 52° Northeast 428 493 29,000  Level Atlanta Center
07:54AM 34.8397 -81.8850 50° Northeast 423 487 29,000  Level Atlanta Center
07:55AM 34.9128 -81.7667 53° Northeast 429 494 29,000  Level Atlanta Center
07:56AM 34.9878 -81.6531 51° Northeast 424 488 29,000  Level Atlanta Center
07:57AM 35.0628 -81.5392 51° Northeast 429 494 29,000  Level Atlanta Center
07:58AM 35.1375 -81.4228 52° Northeast 424 488 29,000  Level Atlanta Center
07:59AM 35.2100 -81.3061 53° Northeast 429 494 29,000  Level Atlanta Center
08:00AM 35.2847 -81.1917 51° Northeast 429 494 29,000  Level Atlanta Center
08:01AM 35.3589 -81.0719 53° Northeast 429 494 29,000  Level Atlanta Center
08:02AM 35.4333 -80.9544 52° Northeast 429 494 29,000  Level Atlanta Center
08:03AM 35.5075 -80.8369 52° Northeast 429 494 29,000  Level Atlanta Center
08:04AM 35.5836 -80.7192 52° Northeast 429 494 29,000  Level Atlanta Center
08:06AM 35.6947 -80.5383 53° Northeast 433 498 29,000  Level Washington Center
08:07AM 35.7664 -80.4225 53° Northeast 437 503 29,000  Level Washington Center
08:08AM 35.8419 -80.3042 52° Northeast 437 503 29,000  Level Washington Center
08:09AM 35.9089 -80.1953 53° Northeast 442 509 29,000  Level Washington Center
08:10AM 35.9908 -80.0692 51° Northeast 442 509 29,000  Level Washington Center
08:11AM 36.0642 -79.9500 53° Northeast 437 503 29,000  Level Washington Center
08:12AM 36.1356 -79.8228 55° Northeast 442 509 29,000  Level Washington Center
08:13AM 36.1978 -79.7103 56° Northeast 435 501 29,000 -300 Level Washington Center
08:14AM 36.2733 -79.5750 55° Northeast 440 506 28,400 -900 Descending Washington Center
08:15AM 36.3356 -79.4647 55° Northeast 432 497 27,300 -1,140 Descending Washington Center
08:16AM 36.4019 -79.3442 56° Northeast 432 497 26,200 -1,080 Descending Washington Center
08:17AM 36.4703 -79.2208 55° Northeast 432 497 25,200 -600 Descending Washington Center
08:18AM 36.5450 -79.0953 53° Northeast 423 487 25,000 -120 Descending Washington Center
08:19AM 36.6111 -78.9764 55° Northeast 418 481 25,000  Level Washington Center
08:20AM 36.6750 -78.8525 57° Northeast 423 487 25,000  Level Washington Center
08:21AM 36.7408 -78.7333 55° Northeast 423 487 25,000  Level Washington Center
08:22AM 36.8064 -78.6142 55° Northeast 418 481 25,000  Level Washington Center
08:23AM 36.8697 -78.5022 55° Northeast 413 475 25,000  Level Washington Center
08:24AM 36.9461 -78.3597 56° Northeast 433 498 25,000  Level Washington Center
08:25AM 37.0158 -78.2319 56° Northeast 464 534 25,000 -420 Level Washington Center
08:26AM 37.1122 -78.1078 46° Northeast 454 522 24,200 -1,080 Descending Washington Center
08:27AM 37.2225 -78.0200 32° Northeast 454 522 22,900 -1,140 Descending Washington Center
08:28AM 37.3286 -77.9347 33° Northeast 454 522 22,000 -480 Descending Washington Center
08:29AM 37.4325 -77.8517 32° Northeast 448 516 22,000  Level Washington Center
08:30AM 37.5339 -77.7733 31° Northeast 436 502 22,000  Level Washington Center
08:31AM 37.6356 -77.6925 32° Northeast 431 496 22,000 -1,020 Level Washington Center
08:32AM 37.7350 -77.6083 34° Northeast 431 496 20,000 -2,040 Descending Washington Center
08:33AM 37.8322 -77.5322 32° Northeast 421 484 17,900 -2,160 Descending Washington Center
08:34AM 37.9231 -77.4556 34° Northeast 408 470 15,800 -2,040 Descending Washington Center
08:35AM 38.0097 -77.3864 32° Northeast 385 443 13,900 -1,560 Descending Washington Center
08:36AM 38.0878 -77.3250 32° Northeast 367 422 12,700 -1,260 Descending Washington Center
08:37AM 38.1742 -77.2583 31° Northeast 367 422 11,400 -1,320 Descending Washington Center
08:38AM 38.2544 -77.1889 34° Northeast 361 415 10,100 -720 Descending Washington Center
08:39AM 38.3322 -77.1294 31° Northeast 337 388 10,000 -300 Descending Washington Center
08:40AM 38.4081 -77.0675 33° Northeast 324 373 9,600 -1,140 Descending Washington Center
08:41AM 38.4797 -77.0186 28° Northeast 309 356 7,700 -1,740 Descending Washington Center
08:42AM 38.5464 -77.0172 North 258 297 6,200 -1,620 Descending Washington Center
08:43AM 38.6067 -77.0183 359° North 236 272 4,600 -1,620 Descending Washington Center
08:44AM 38.6567 -77.0219 357° North 207 238 3,100 -1,080 Descending Washington Center
08:45AM 38.7167 -77.0167 North 166 191 2,500 -660 Descending Potomac TRACON
08:46AM 38.7500 -77.0333 339° North 158 182 1,800 -720 Descending Potomac TRACON